sensor_id;sensor_type;location;lat;lon;timestamp;P1;durP1;ratioP1;P2;durP2;ratioP2
11473;SDS011;5793;52.238;13.438;2023-04-03T00:00:38;6.20;;;2.20;;
11473;SDS011;5793;52.238;13.438;2023-04-03T00:03:06;8.43;;;2.20;;
11473;SDS011;5793;52.238;13.438;2023-04-03T00:05:34;4.47;;;1.70;;
11473;SDS011;5793;52.238;13.438;2023-04-03T00:08:02;6.13;;;2.00;;
11473;SDS011;5793;52.238;13.438;2023-04-03T00:10:30;4.53;;;1.90;;
11473;SDS011;5793;52.238;13.438;2023-04-03T00:12:58;6.43;;;1.90;;
11473;SDS011;5793;52.238;13.438;2023-04-03T00:15:27;4.53;;;1.93;;
11473;SDS011;5793;52.238;13.438;2023-04-03T00:17:55;5.47;;;1.70;;
11473;SDS011;5793;52.238;13.438;2023-04-03T00:20:23;7.90;;;2.43;;
11473;SDS011;5793;52.238;13.438;2023-04-03T00:22:52;6.13;;;1.83;;
11473;SDS011;5793;52.238;13.438;2023-04-03T00:25:20;4.67;;;2.10;;
11473;SDS011;5793;52.238;13.438;2023-04-03T00:27:48;5.77;;;1.87;;
11473;SDS011;5793;52.238;13.438;2023-04-03T00:30:17;5.17;;;1.80;;
11473;SDS011;5793;52.238;13.438;2023-04-03T00:32:48;4.03;;;1.73;;
11473;SDS011;5793;52.238;13.438;2023-04-03T00:35:17;6.80;;;1.87;;
11473;SDS011;5793;52.238;13.438;2023-04-03T00:37:46;5.20;;;1.80;;
11473;SDS011;5793;52.238;13.438;2023-04-03T00:40:15;5.97;;;2.03;;
11473;SDS011;5793;52.238;13.438;2023-04-03T00:42:43;4.67;;;1.70;;
11473;SDS011;5793;52.238;13.438;2023-04-03T00:45:24;4.47;;;1.73;;
11473;SDS011;5793;52.238;13.438;2023-04-03T00:47:56;5.50;;;1.83;;
11473;SDS011;5793;52.238;13.438;2023-04-03T00:50:26;2.80;;;1.60;;
11473;SDS011;5793;52.238;13.438;2023-04-03T00:52:55;4.50;;;1.87;;
11473;SDS011;5793;52.238;13.438;2023-04-03T00:55:24;3.43;;;1.73;;
11473;SDS011;5793;52.238;13.438;2023-04-03T00:57:52;6.37;;;1.83;;
11473;SDS011;5793;52.238;13.438;2023-04-03T01:00:22;4.27;;;1.70;;
11473;SDS011;5793;52.238;13.438;2023-04-03T01:02:50;5.10;;;2.00;;
11473;SDS011;5793;52.238;13.438;2023-04-03T01:05:20;5.20;;;2.20;;
11473;SDS011;5793;52.238;13.438;2023-04-03T01:07:49;5.10;;;2.17;;
11473;SDS011;5793;52.238;13.438;2023-04-03T01:10:25;4.60;;;1.93;;
11473;SDS011;5793;52.238;13.438;2023-04-03T01:12:52;2.80;;;1.50;;
11473;SDS011;5793;52.238;13.438;2023-04-03T01:15:21;7.87;;;2.10;;
11473;SDS011;5793;52.238;13.438;2023-04-03T01:17:51;6.10;;;1.60;;
11473;SDS011;5793;52.238;13.438;2023-04-03T01:20:40;3.40;;;1.60;;
11473;SDS011;5793;52.238;13.438;2023-04-03T01:23:42;4.17;;;1.80;;
11473;SDS011;5793;52.238;13.438;2023-04-03T01:26:18;3.87;;;2.10;;
11473;SDS011;5793;52.238;13.438;2023-04-03T01:28:47;8.40;;;2.03;;
11473;SDS011;5793;52.238;13.438;2023-04-03T01:31:16;7.53;;;2.30;;
11473;SDS011;5793;52.238;13.438;2023-04-03T01:33:50;6.67;;;2.10;;
11473;SDS011;5793;52.238;13.438;2023-04-03T01:36:20;4.57;;;2.07;;
11473;SDS011;5793;52.238;13.438;2023-04-03T01:38:50;7.13;;;1.93;;
11473;SDS011;5793;52.238;13.438;2023-04-03T01:41:18;9.00;;;1.97;;
11473;SDS011;5793;52.238;13.438;2023-04-03T01:43:46;7.90;;;2.00;;
11473;SDS011;5793;52.238;13.438;2023-04-03T01:46:15;3.53;;;1.77;;
11473;SDS011;5793;52.238;13.438;2023-04-03T01:48:43;5.03;;;1.77;;
11473;SDS011;5793;52.238;13.438;2023-04-03T01:51:12;5.63;;;1.67;;
11473;SDS011;5793;52.238;13.438;2023-04-03T01:53:40;9.03;;;1.70;;
11473;SDS011;5793;52.238;13.438;2023-04-03T01:56:08;5.63;;;1.80;;
11473;SDS011;5793;52.238;13.438;2023-04-03T01:58:36;4.87;;;1.80;;
11473;SDS011;5793;52.238;13.438;2023-04-03T02:01:04;7.93;;;2.00;;
11473;SDS011;5793;52.238;13.438;2023-04-03T02:03:32;10.27;;;2.30;;
11473;SDS011;5793;52.238;13.438;2023-04-03T02:06:00;4.60;;;2.10;;
11473;SDS011;5793;52.238;13.438;2023-04-03T02:08:29;6.70;;;1.70;;
11473;SDS011;5793;52.238;13.438;2023-04-03T02:10:57;6.03;;;1.63;;
11473;SDS011;5793;52.238;13.438;2023-04-03T02:13:25;8.10;;;2.17;;
11473;SDS011;5793;52.238;13.438;2023-04-03T02:15:53;9.90;;;2.37;;
11473;SDS011;5793;52.238;13.438;2023-04-03T02:18:21;5.93;;;2.00;;
11473;SDS011;5793;52.238;13.438;2023-04-03T02:20:48;5.93;;;2.03;;
11473;SDS011;5793;52.238;13.438;2023-04-03T02:23:16;7.23;;;1.90;;
11473;SDS011;5793;52.238;13.438;2023-04-03T02:25:45;5.40;;;1.83;;
11473;SDS011;5793;52.238;13.438;2023-04-03T02:28:15;4.60;;;2.00;;
11473;SDS011;5793;52.238;13.438;2023-04-03T02:30:43;5.00;;;2.00;;
11473;SDS011;5793;52.238;13.438;2023-04-03T02:33:10;4.13;;;1.90;;
11473;SDS011;5793;52.238;13.438;2023-04-03T02:35:39;4.80;;;2.40;;
11473;SDS011;5793;52.238;13.438;2023-04-03T02:38:07;4.13;;;2.00;;
11473;SDS011;5793;52.238;13.438;2023-04-03T02:40:35;8.10;;;2.40;;
11473;SDS011;5793;52.238;13.438;2023-04-03T02:43:04;4.40;;;1.97;;
11473;SDS011;5793;52.238;13.438;2023-04-03T02:45:32;7.83;;;2.33;;
11473;SDS011;5793;52.238;13.438;2023-04-03T02:48:00;8.53;;;2.23;;
11473;SDS011;5793;52.238;13.438;2023-04-03T02:50:28;6.63;;;1.80;;
11473;SDS011;5793;52.238;13.438;2023-04-03T02:52:55;6.97;;;2.00;;
11473;SDS011;5793;52.238;13.438;2023-04-03T02:55:23;6.80;;;2.00;;
11473;SDS011;5793;52.238;13.438;2023-04-03T02:57:51;4.53;;;2.00;;
11473;SDS011;5793;52.238;13.438;2023-04-03T03:00:20;3.03;;;1.60;;
11473;SDS011;5793;52.238;13.438;2023-04-03T03:02:48;5.23;;;1.80;;
11473;SDS011;5793;52.238;13.438;2023-04-03T03:05:16;5.13;;;2.07;;
11473;SDS011;5793;52.238;13.438;2023-04-03T03:07:44;5.87;;;2.17;;
11473;SDS011;5793;52.238;13.438;2023-04-03T03:10:12;7.90;;;2.33;;
11473;SDS011;5793;52.238;13.438;2023-04-03T03:12:40;4.67;;;2.03;;
11473;SDS011;5793;52.238;13.438;2023-04-03T03:15:08;3.40;;;1.90;;
11473;SDS011;5793;52.238;13.438;2023-04-03T03:17:38;4.63;;;1.63;;
11473;SDS011;5793;52.238;13.438;2023-04-03T03:20:06;4.63;;;1.90;;
11473;SDS011;5793;52.238;13.438;2023-04-03T03:22:35;7.33;;;2.20;;
11473;SDS011;5793;52.238;13.438;2023-04-03T03:25:03;5.17;;;2.37;;
11473;SDS011;5793;52.238;13.438;2023-04-03T03:27:32;5.32;;;2.30;;
11473;SDS011;5793;52.238;13.438;2023-04-03T03:30:00;6.97;;;1.93;;
11473;SDS011;5793;52.238;13.438;2023-04-03T03:32:27;6.17;;;2.13;;
11473;SDS011;5793;52.238;13.438;2023-04-03T03:34:57;4.50;;;1.63;;
11473;SDS011;5793;52.238;13.438;2023-04-03T03:37:24;6.93;;;2.00;;
11473;SDS011;5793;52.238;13.438;2023-04-03T03:39:53;7.33;;;2.60;;
11473;SDS011;5793;52.238;13.438;2023-04-03T03:42:21;6.90;;;2.60;;
11473;SDS011;5793;52.238;13.438;2023-04-03T03:44:48;4.67;;;1.90;;
11473;SDS011;5793;52.238;13.438;2023-04-03T03:47:17;8.27;;;2.50;;
11473;SDS011;5793;52.238;13.438;2023-04-03T03:49:46;9.10;;;2.07;;
11473;SDS011;5793;52.238;13.438;2023-04-03T03:52:15;5.13;;;1.80;;
11473;SDS011;5793;52.238;13.438;2023-04-03T03:54:43;6.60;;;2.10;;
11473;SDS011;5793;52.238;13.438;2023-04-03T03:57:11;8.15;;;2.45;;
11473;SDS011;5793;52.238;13.438;2023-04-03T03:59:39;6.13;;;2.60;;
11473;SDS011;5793;52.238;13.438;2023-04-03T04:02:07;8.57;;;2.40;;
11473;SDS011;5793;52.238;13.438;2023-04-03T04:04:35;8.80;;;1.90;;
11473;SDS011;5793;52.238;13.438;2023-04-03T04:07:03;8.10;;;2.27;;
11473;SDS011;5793;52.238;13.438;2023-04-03T04:09:32;5.43;;;2.03;;
11473;SDS011;5793;52.238;13.438;2023-04-03T04:12:00;4.80;;;2.30;;
11473;SDS011;5793;52.238;13.438;2023-04-03T04:14:28;8.57;;;1.90;;
11473;SDS011;5793;52.238;13.438;2023-04-03T04:16:56;11.33;;;2.63;;
11473;SDS011;5793;52.238;13.438;2023-04-03T04:19:23;9.10;;;2.47;;
11473;SDS011;5793;52.238;13.438;2023-04-03T04:21:51;8.73;;;2.43;;
11473;SDS011;5793;52.238;13.438;2023-04-03T04:24:19;4.83;;;1.90;;
11473;SDS011;5793;52.238;13.438;2023-04-03T04:26:50;8.83;;;2.23;;
11473;SDS011;5793;52.238;13.438;2023-04-03T04:29:18;4.93;;;2.40;;
11473;SDS011;5793;52.238;13.438;2023-04-03T04:31:45;8.00;;;2.10;;
11473;SDS011;5793;52.238;13.438;2023-04-03T04:34:13;11.20;;;2.57;;
11473;SDS011;5793;52.238;13.438;2023-04-03T04:36:41;3.50;;;2.20;;
11473;SDS011;5793;52.238;13.438;2023-04-03T04:39:09;5.53;;;2.77;;
11473;SDS011;5793;52.238;13.438;2023-04-03T04:41:37;5.83;;;2.20;;
11473;SDS011;5793;52.238;13.438;2023-04-03T04:44:06;9.77;;;2.30;;
11473;SDS011;5793;52.238;13.438;2023-04-03T04:46:34;5.63;;;2.00;;
11473;SDS011;5793;52.238;13.438;2023-04-03T04:49:02;8.47;;;2.33;;
11473;SDS011;5793;52.238;13.438;2023-04-03T04:51:30;6.43;;;2.13;;
11473;SDS011;5793;52.238;13.438;2023-04-03T04:54:09;7.83;;;2.70;;
11473;SDS011;5793;52.238;13.438;2023-04-03T04:56:37;5.83;;;2.10;;
11473;SDS011;5793;52.238;13.438;2023-04-03T04:59:06;8.13;;;2.53;;
11473;SDS011;5793;52.238;13.438;2023-04-03T05:01:34;9.87;;;2.33;;
11473;SDS011;5793;52.238;13.438;2023-04-03T05:04:02;5.23;;;2.07;;
11473;SDS011;5793;52.238;13.438;2023-04-03T05:06:30;8.77;;;2.30;;
11473;SDS011;5793;52.238;13.438;2023-04-03T05:08:59;4.90;;;2.10;;
11473;SDS011;5793;52.238;13.438;2023-04-03T05:11:27;5.73;;;2.07;;
11473;SDS011;5793;52.238;13.438;2023-04-03T05:13:54;5.50;;;2.13;;
11473;SDS011;5793;52.238;13.438;2023-04-03T05:16:23;7.30;;;2.43;;
11473;SDS011;5793;52.238;13.438;2023-04-03T05:18:51;8.53;;;2.30;;
11473;SDS011;5793;52.238;13.438;2023-04-03T05:21:19;10.07;;;3.60;;
11473;SDS011;5793;52.238;13.438;2023-04-03T05:23:49;13.43;;;3.37;;
11473;SDS011;5793;52.238;13.438;2023-04-03T05:26:17;10.90;;;3.30;;
11473;SDS011;5793;52.238;13.438;2023-04-03T05:28:45;8.00;;;3.40;;
11473;SDS011;5793;52.238;13.438;2023-04-03T05:31:13;12.00;;;3.90;;
11473;SDS011;5793;52.238;13.438;2023-04-03T05:33:42;16.00;;;3.90;;
11473;SDS011;5793;52.238;13.438;2023-04-03T05:36:10;9.47;;;3.57;;
11473;SDS011;5793;52.238;13.438;2023-04-03T05:38:39;8.60;;;2.97;;
11473;SDS011;5793;52.238;13.438;2023-04-03T05:41:07;8.13;;;3.27;;
11473;SDS011;5793;52.238;13.438;2023-04-03T05:43:35;10.83;;;2.97;;
11473;SDS011;5793;52.238;13.438;2023-04-03T05:46:04;11.47;;;3.33;;
11473;SDS011;5793;52.238;13.438;2023-04-03T05:48:35;6.87;;;2.83;;
11473;SDS011;5793;52.238;13.438;2023-04-03T05:51:06;6.20;;;2.83;;
11473;SDS011;5793;52.238;13.438;2023-04-03T05:53:35;7.53;;;2.93;;
11473;SDS011;5793;52.238;13.438;2023-04-03T05:56:04;7.27;;;2.83;;
11473;SDS011;5793;52.238;13.438;2023-04-03T05:58:32;7.13;;;2.77;;
11473;SDS011;5793;52.238;13.438;2023-04-03T06:01:00;6.73;;;2.87;;
11473;SDS011;5793;52.238;13.438;2023-04-03T06:03:27;8.83;;;2.87;;
11473;SDS011;5793;52.238;13.438;2023-04-03T06:05:55;9.43;;;2.90;;
11473;SDS011;5793;52.238;13.438;2023-04-03T06:08:24;5.23;;;2.90;;
11473;SDS011;5793;52.238;13.438;2023-04-03T06:10:52;8.97;;;3.43;;
11473;SDS011;5793;52.238;13.438;2023-04-03T06:13:20;7.67;;;2.47;;
11473;SDS011;5793;52.238;13.438;2023-04-03T06:15:48;6.30;;;2.67;;
11473;SDS011;5793;52.238;13.438;2023-04-03T06:18:16;6.13;;;2.47;;
11473;SDS011;5793;52.238;13.438;2023-04-03T06:20:43;6.27;;;2.70;;
11473;SDS011;5793;52.238;13.438;2023-04-03T06:23:12;8.87;;;3.50;;
11473;SDS011;5793;52.238;13.438;2023-04-03T06:25:41;8.33;;;2.63;;
11473;SDS011;5793;52.238;13.438;2023-04-03T06:28:09;6.47;;;2.60;;
11473;SDS011;5793;52.238;13.438;2023-04-03T06:30:37;6.43;;;2.80;;
11473;SDS011;5793;52.238;13.438;2023-04-03T06:33:06;6.70;;;2.10;;
11473;SDS011;5793;52.238;13.438;2023-04-03T06:35:34;12.33;;;2.63;;
11473;SDS011;5793;52.238;13.438;2023-04-03T06:38:02;5.60;;;2.07;;
11473;SDS011;5793;52.238;13.438;2023-04-03T06:40:35;5.23;;;2.23;;
11473;SDS011;5793;52.238;13.438;2023-04-03T06:43:05;7.93;;;2.63;;
11473;SDS011;5793;52.238;13.438;2023-04-03T06:45:33;6.37;;;2.30;;
11473;SDS011;5793;52.238;13.438;2023-04-03T06:48:02;6.87;;;2.00;;
11473;SDS011;5793;52.238;13.438;2023-04-03T06:50:31;5.03;;;2.00;;
11473;SDS011;5793;52.238;13.438;2023-04-03T06:52:59;6.43;;;1.97;;
11473;SDS011;5793;52.238;13.438;2023-04-03T06:55:28;7.97;;;2.60;;
11473;SDS011;5793;52.238;13.438;2023-04-03T06:57:56;6.03;;;2.43;;
11473;SDS011;5793;52.238;13.438;2023-04-03T07:00:25;5.70;;;1.77;;
11473;SDS011;5793;52.238;13.438;2023-04-03T07:02:53;4.33;;;1.90;;
11473;SDS011;5793;52.238;13.438;2023-04-03T07:05:23;4.77;;;1.50;;
11473;SDS011;5793;52.238;13.438;2023-04-03T07:07:51;7.43;;;2.07;;
11473;SDS011;5793;52.238;13.438;2023-04-03T07:10:19;3.43;;;1.70;;
11473;SDS011;5793;52.238;13.438;2023-04-03T07:12:47;5.23;;;1.73;;
11473;SDS011;5793;52.238;13.438;2023-04-03T07:15:14;4.47;;;1.90;;
11473;SDS011;5793;52.238;13.438;2023-04-03T07:17:44;4.93;;;1.77;;
11473;SDS011;5793;52.238;13.438;2023-04-03T07:20:12;7.83;;;2.00;;
11473;SDS011;5793;52.238;13.438;2023-04-03T07:22:41;4.63;;;1.93;;
11473;SDS011;5793;52.238;13.438;2023-04-03T07:25:09;5.83;;;1.80;;
11473;SDS011;5793;52.238;13.438;2023-04-03T07:27:37;3.63;;;1.80;;
11473;SDS011;5793;52.238;13.438;2023-04-03T07:30:05;6.70;;;1.90;;
11473;SDS011;5793;52.238;13.438;2023-04-03T07:32:35;4.80;;;1.83;;
11473;SDS011;5793;52.238;13.438;2023-04-03T07:35:04;5.33;;;1.70;;
11473;SDS011;5793;52.238;13.438;2023-04-03T07:37:32;5.67;;;2.03;;
11473;SDS011;5793;52.238;13.438;2023-04-03T07:40:00;3.90;;;1.40;;
11473;SDS011;5793;52.238;13.438;2023-04-03T07:42:29;8.27;;;1.60;;
11473;SDS011;5793;52.238;13.438;2023-04-03T07:44:57;4.13;;;1.73;;
11473;SDS011;5793;52.238;13.438;2023-04-03T07:47:26;6.17;;;1.70;;
11473;SDS011;5793;52.238;13.438;2023-04-03T07:49:54;6.30;;;1.77;;
11473;SDS011;5793;52.238;13.438;2023-04-03T07:52:24;4.40;;;1.30;;
11473;SDS011;5793;52.238;13.438;2023-04-03T07:54:52;2.60;;;1.63;;
11473;SDS011;5793;52.238;13.438;2023-04-03T07:57:20;2.63;;;1.47;;
11473;SDS011;5793;52.238;13.438;2023-04-03T07:59:48;5.23;;;1.53;;
11473;SDS011;5793;52.238;13.438;2023-04-03T08:02:15;4.13;;;1.67;;
11473;SDS011;5793;52.238;13.438;2023-04-03T08:04:43;7.77;;;1.60;;
11473;SDS011;5793;52.238;13.438;2023-04-03T08:07:11;4.30;;;1.37;;
11473;SDS011;5793;52.238;13.438;2023-04-03T08:09:40;5.77;;;1.50;;
11473;SDS011;5793;52.238;13.438;2023-04-03T08:12:08;3.40;;;1.70;;
11473;SDS011;5793;52.238;13.438;2023-04-03T08:14:37;6.40;;;1.73;;
11473;SDS011;5793;52.238;13.438;2023-04-03T08:17:05;4.70;;;1.47;;
11473;SDS011;5793;52.238;13.438;2023-04-03T08:19:35;2.57;;;1.37;;
11473;SDS011;5793;52.238;13.438;2023-04-03T08:22:03;11.40;;;1.80;;
11473;SDS011;5793;52.238;13.438;2023-04-03T08:24:31;6.07;;;1.70;;
11473;SDS011;5793;52.238;13.438;2023-04-03T08:27:01;2.57;;;1.20;;
11473;SDS011;5793;52.238;13.438;2023-04-03T08:29:29;3.27;;;1.60;;
11473;SDS011;5793;52.238;13.438;2023-04-03T08:31:59;4.47;;;1.40;;
11473;SDS011;5793;52.238;13.438;2023-04-03T08:34:27;4.73;;;1.33;;
11473;SDS011;5793;52.238;13.438;2023-04-03T08:36:55;3.00;;;1.30;;
11473;SDS011;5793;52.238;13.438;2023-04-03T08:39:23;7.97;;;1.30;;
11473;SDS011;5793;52.238;13.438;2023-04-03T08:41:51;3.50;;;1.10;;
11473;SDS011;5793;52.238;13.438;2023-04-03T08:44:23;2.33;;;1.17;;
11473;SDS011;5793;52.238;13.438;2023-04-03T08:47:04;3.47;;;1.30;;
11473;SDS011;5793;52.238;13.438;2023-04-03T08:49:43;5.10;;;1.73;;
11473;SDS011;5793;52.238;13.438;2023-04-03T08:52:18;6.23;;;1.37;;
11473;SDS011;5793;52.238;13.438;2023-04-03T08:54:49;2.33;;;1.10;;
11473;SDS011;5793;52.238;13.438;2023-04-03T08:57:20;2.97;;;1.20;;
11473;SDS011;5793;52.238;13.438;2023-04-03T08:59:55;2.80;;;1.10;;
11473;SDS011;5793;52.238;13.438;2023-04-03T09:02:25;5.27;;;1.40;;
11473;SDS011;5793;52.238;13.438;2023-04-03T09:04:56;2.90;;;1.37;;
11473;SDS011;5793;52.238;13.438;2023-04-03T09:07:27;3.73;;;1.17;;
11473;SDS011;5793;52.238;13.438;2023-04-03T09:10:03;2.53;;;1.40;;
11473;SDS011;5793;52.238;13.438;2023-04-03T09:12:32;3.40;;;1.43;;
11473;SDS011;5793;52.238;13.438;2023-04-03T09:15:09;5.13;;;1.43;;
11473;SDS011;5793;52.238;13.438;2023-04-03T09:17:56;4.87;;;1.50;;
11473;SDS011;5793;52.238;13.438;2023-04-03T09:20:31;2.17;;;1.13;;
11473;SDS011;5793;52.238;13.438;2023-04-03T09:23:12;6.03;;;1.50;;
11473;SDS011;5793;52.238;13.438;2023-04-03T09:25:45;4.03;;;1.30;;
11473;SDS011;5793;52.238;13.438;2023-04-03T09:28:13;1.93;;;1.20;;
11473;SDS011;5793;52.238;13.438;2023-04-03T09:30:43;3.80;;;1.53;;
11473;SDS011;5793;52.238;13.438;2023-04-03T09:33:11;4.30;;;1.60;;
11473;SDS011;5793;52.238;13.438;2023-04-03T09:35:41;3.70;;;1.43;;
11473;SDS011;5793;52.238;13.438;2023-04-03T09:38:15;3.70;;;1.40;;
11473;SDS011;5793;52.238;13.438;2023-04-03T09:40:45;1.77;;;1.17;;
11473;SDS011;5793;52.238;13.438;2023-04-03T09:43:19;1.97;;;1.13;;
11473;SDS011;5793;52.238;13.438;2023-04-03T09:45:55;2.37;;;1.30;;
11473;SDS011;5793;52.238;13.438;2023-04-03T09:48:51;4.13;;;1.30;;
11473;SDS011;5793;52.238;13.438;2023-04-03T09:51:34;3.50;;;1.40;;
11473;SDS011;5793;52.238;13.438;2023-04-03T09:54:23;2.63;;;1.50;;
11473;SDS011;5793;52.238;13.438;2023-04-03T09:57:00;3.57;;;1.60;;
11473;SDS011;5793;52.238;13.438;2023-04-03T09:59:33;3.80;;;1.47;;
11473;SDS011;5793;52.238;13.438;2023-04-03T10:02:03;2.27;;;1.40;;
11473;SDS011;5793;52.238;13.438;2023-04-03T10:04:47;6.43;;;1.40;;
11473;SDS011;5793;52.238;13.438;2023-04-03T10:07:34;3.70;;;1.40;;
11473;SDS011;5793;52.238;13.438;2023-04-03T10:10:15;2.60;;;1.30;;
11473;SDS011;5793;52.238;13.438;2023-04-03T10:12:46;3.40;;;1.30;;
11473;SDS011;5793;52.238;13.438;2023-04-03T10:15:15;1.87;;;1.23;;
11473;SDS011;5793;52.238;13.438;2023-04-03T10:17:53;3.40;;;1.27;;
11473;SDS011;5793;52.238;13.438;2023-04-03T10:20:28;2.83;;;1.67;;
11473;SDS011;5793;52.238;13.438;2023-04-03T10:23:05;3.33;;;1.30;;
11473;SDS011;5793;52.238;13.438;2023-04-03T10:25:48;3.30;;;1.63;;
11473;SDS011;5793;52.238;13.438;2023-04-03T10:28:24;2.43;;;1.10;;
11473;SDS011;5793;52.238;13.438;2023-04-03T10:30:58;3.57;;;1.20;;
11473;SDS011;5793;52.238;13.438;2023-04-03T10:33:37;2.13;;;1.20;;
11473;SDS011;5793;52.238;13.438;2023-04-03T10:36:17;1.60;;;1.17;;
11473;SDS011;5793;52.238;13.438;2023-04-03T10:38:55;4.07;;;1.00;;
11473;SDS011;5793;52.238;13.438;2023-04-03T10:41:32;4.50;;;1.60;;
11473;SDS011;5793;52.238;13.438;2023-04-03T10:44:10;3.30;;;1.47;;
11473;SDS011;5793;52.238;13.438;2023-04-03T10:46:44;2.23;;;1.23;;
11473;SDS011;5793;52.238;13.438;2023-04-03T10:49:21;1.33;;;1.03;;
11473;SDS011;5793;52.238;13.438;2023-04-03T10:52:02;3.50;;;1.40;;
11473;SDS011;5793;52.238;13.438;2023-04-03T10:54:39;4.03;;;1.23;;
11473;SDS011;5793;52.238;13.438;2023-04-03T10:57:11;2.23;;;1.20;;
11473;SDS011;5793;52.238;13.438;2023-04-03T10:59:40;3.20;;;1.40;;
11473;SDS011;5793;52.238;13.438;2023-04-03T11:02:14;6.83;;;1.73;;
11473;SDS011;5793;52.238;13.438;2023-04-03T11:04:48;3.97;;;1.70;;
11473;SDS011;5793;52.238;13.438;2023-04-03T11:07:20;6.07;;;2.10;;
11473;SDS011;5793;52.238;13.438;2023-04-03T11:09:49;5.00;;;2.20;;
11473;SDS011;5793;52.238;13.438;2023-04-03T11:12:23;2.07;;;1.50;;
11473;SDS011;5793;52.238;13.438;2023-04-03T11:14:55;1.63;;;1.10;;
11473;SDS011;5793;52.238;13.438;2023-04-03T11:17:26;4.70;;;1.40;;
11473;SDS011;5793;52.238;13.438;2023-04-03T11:20:03;2.63;;;1.20;;
11473;SDS011;5793;52.238;13.438;2023-04-03T11:22:36;2.70;;;1.37;;
11473;SDS011;5793;52.238;13.438;2023-04-03T11:25:14;3.37;;;1.40;;
11473;SDS011;5793;52.238;13.438;2023-04-03T11:27:49;3.83;;;1.30;;
11473;SDS011;5793;52.238;13.438;2023-04-03T11:30:22;2.20;;;1.43;;
11473;SDS011;5793;52.238;13.438;2023-04-03T11:32:55;2.83;;;1.30;;
11473;SDS011;5793;52.238;13.438;2023-04-03T11:35:48;2.87;;;1.10;;
11473;SDS011;5793;52.238;13.438;2023-04-03T11:38:20;2.50;;;1.17;;
11473;SDS011;5793;52.238;13.438;2023-04-03T11:40:51;3.53;;;1.53;;
11473;SDS011;5793;52.238;13.438;2023-04-03T11:43:21;3.70;;;1.30;;
11473;SDS011;5793;52.238;13.438;2023-04-03T11:45:53;4.13;;;1.50;;
11473;SDS011;5793;52.238;13.438;2023-04-03T11:51:40;3.17;;;1.43;;
11473;SDS011;5793;52.238;13.438;2023-04-03T11:57:23;4.60;;;1.13;;
11473;SDS011;5793;52.238;13.438;2023-04-03T12:03:34;1.93;;;1.40;;
11473;SDS011;5793;52.238;13.438;2023-04-03T12:12:58;3.00;;;1.63;;
11473;SDS011;5793;52.238;13.438;2023-04-03T12:18:31;5.40;;;1.73;;
11473;SDS011;5793;52.238;13.438;2023-04-03T12:21:07;3.70;;;1.63;;
11473;SDS011;5793;52.238;13.438;2023-04-03T12:23:54;4.87;;;1.93;;
11473;SDS011;5793;52.238;13.438;2023-04-03T12:26:30;3.50;;;1.60;;
11473;SDS011;5793;52.238;13.438;2023-04-03T12:29:14;3.33;;;1.50;;
11473;SDS011;5793;52.238;13.438;2023-04-03T12:31:49;1.60;;;1.20;;
11473;SDS011;5793;52.238;13.438;2023-04-03T12:34:30;1.70;;;1.07;;
11473;SDS011;5793;52.238;13.438;2023-04-03T12:37:16;5.33;;;1.70;;
11473;SDS011;5793;52.238;13.438;2023-04-03T12:39:56;4.00;;;1.30;;
11473;SDS011;5793;52.238;13.438;2023-04-03T12:42:40;2.43;;;1.40;;
11473;SDS011;5793;52.238;13.438;2023-04-03T12:45:28;3.07;;;1.27;;
11473;SDS011;5793;52.238;13.438;2023-04-03T12:48:12;3.90;;;1.43;;
11473;SDS011;5793;52.238;13.438;2023-04-03T12:50:42;2.97;;;1.30;;
11473;SDS011;5793;52.238;13.438;2023-04-03T12:53:12;4.17;;;1.23;;
11473;SDS011;5793;52.238;13.438;2023-04-03T12:55:43;4.97;;;1.70;;
11473;SDS011;5793;52.238;13.438;2023-04-03T12:58:15;2.47;;;1.20;;
11473;SDS011;5793;52.238;13.438;2023-04-03T13:00:44;2.13;;;1.27;;
11473;SDS011;5793;52.238;13.438;2023-04-03T13:03:19;1.90;;;1.40;;
11473;SDS011;5793;52.238;13.438;2023-04-03T13:05:50;1.20;;;1.10;;
11473;SDS011;5793;52.238;13.438;2023-04-03T13:08:18;2.77;;;1.37;;
11473;SDS011;5793;52.238;13.438;2023-04-03T13:10:50;5.00;;;1.60;;
11473;SDS011;5793;52.238;13.438;2023-04-03T13:13:21;5.53;;;1.60;;
11473;SDS011;5793;52.238;13.438;2023-04-03T13:15:50;4.53;;;1.90;;
11473;SDS011;5793;52.238;13.438;2023-04-03T13:18:22;3.23;;;1.70;;
11473;SDS011;5793;52.238;13.438;2023-04-03T13:20:57;2.53;;;1.70;;
11473;SDS011;5793;52.238;13.438;2023-04-03T13:23:28;2.80;;;1.40;;
11473;SDS011;5793;52.238;13.438;2023-04-03T13:25:58;13.30;;;2.30;;
11473;SDS011;5793;52.238;13.438;2023-04-03T13:28:30;2.70;;;1.97;;
11473;SDS011;5793;52.238;13.438;2023-04-03T13:31:01;2.53;;;1.60;;
11473;SDS011;5793;52.238;13.438;2023-04-03T13:33:33;4.03;;;1.60;;
11473;SDS011;5793;52.238;13.438;2023-04-03T13:36:05;2.30;;;1.33;;
11473;SDS011;5793;52.238;13.438;2023-04-03T13:38:35;2.67;;;1.67;;
11473;SDS011;5793;52.238;13.438;2023-04-03T13:41:20;3.47;;;1.70;;
11473;SDS011;5793;52.238;13.438;2023-04-03T13:43:51;2.73;;;1.60;;
11473;SDS011;5793;52.238;13.438;2023-04-03T13:46:31;2.73;;;1.50;;
11473;SDS011;5793;52.238;13.438;2023-04-03T13:48:59;2.20;;;1.40;;
11473;SDS011;5793;52.238;13.438;2023-04-03T13:51:45;3.13;;;1.50;;
11473;SDS011;5793;52.238;13.438;2023-04-03T13:54:30;3.70;;;2.00;;
11473;SDS011;5793;52.238;13.438;2023-04-03T13:57:01;3.00;;;1.57;;
11473;SDS011;5793;52.238;13.438;2023-04-03T13:59:31;2.80;;;1.77;;
11473;SDS011;5793;52.238;13.438;2023-04-03T14:02:11;2.63;;;1.47;;
11473;SDS011;5793;52.238;13.438;2023-04-03T14:04:48;4.37;;;1.67;;
11473;SDS011;5793;52.238;13.438;2023-04-03T14:07:19;3.70;;;1.63;;
11473;SDS011;5793;52.238;13.438;2023-04-03T14:09:47;3.70;;;1.77;;
11473;SDS011;5793;52.238;13.438;2023-04-03T14:12:18;2.97;;;1.50;;
11473;SDS011;5793;52.238;13.438;2023-04-03T14:14:57;4.33;;;1.30;;
11473;SDS011;5793;52.238;13.438;2023-04-03T14:17:25;2.00;;;1.40;;
11473;SDS011;5793;52.238;13.438;2023-04-03T14:19:55;2.63;;;1.30;;
11473;SDS011;5793;52.238;13.438;2023-04-03T14:22:25;2.53;;;1.40;;
11473;SDS011;5793;52.238;13.438;2023-04-03T14:24:55;3.50;;;1.40;;
11473;SDS011;5793;52.238;13.438;2023-04-03T14:27:26;3.23;;;1.30;;
11473;SDS011;5793;52.238;13.438;2023-04-03T14:29:57;3.00;;;1.33;;
11473;SDS011;5793;52.238;13.438;2023-04-03T14:32:25;2.43;;;1.30;;
11473;SDS011;5793;52.238;13.438;2023-04-03T14:34:54;2.73;;;1.33;;
11473;SDS011;5793;52.238;13.438;2023-04-03T14:37:23;2.40;;;1.40;;
11473;SDS011;5793;52.238;13.438;2023-04-03T14:39:56;2.73;;;1.53;;
11473;SDS011;5793;52.238;13.438;2023-04-03T14:42:26;3.37;;;1.50;;
11473;SDS011;5793;52.238;13.438;2023-04-03T14:44:57;3.07;;;1.60;;
11473;SDS011;5793;52.238;13.438;2023-04-03T14:47:25;7.73;;;1.90;;
11473;SDS011;5793;52.238;13.438;2023-04-03T14:49:57;2.80;;;1.47;;
11473;SDS011;5793;52.238;13.438;2023-04-03T14:52:27;3.67;;;1.60;;
11473;SDS011;5793;52.238;13.438;2023-04-03T14:54:56;2.83;;;1.63;;
11473;SDS011;5793;52.238;13.438;2023-04-03T14:57:27;3.97;;;1.70;;
11473;SDS011;5793;52.238;13.438;2023-04-03T14:59:56;2.73;;;1.37;;
11473;SDS011;5793;52.238;13.438;2023-04-03T15:02:25;2.20;;;1.47;;
11473;SDS011;5793;52.238;13.438;2023-04-03T15:04:56;1.97;;;1.67;;
11473;SDS011;5793;52.238;13.438;2023-04-03T15:07:25;1.93;;;1.47;;
11473;SDS011;5793;52.238;13.438;2023-04-03T15:09:55;2.57;;;1.70;;
11473;SDS011;5793;52.238;13.438;2023-04-03T15:12:23;8.13;;;1.90;;
11473;SDS011;5793;52.238;13.438;2023-04-03T15:14:53;2.77;;;1.43;;
11473;SDS011;5793;52.238;13.438;2023-04-03T15:17:28;3.50;;;1.70;;
11473;SDS011;5793;52.238;13.438;2023-04-03T15:19:58;3.43;;;1.30;;
11473;SDS011;5793;52.238;13.438;2023-04-03T15:22:26;3.53;;;1.50;;
11473;SDS011;5793;52.238;13.438;2023-04-03T15:24:54;2.73;;;1.47;;
11473;SDS011;5793;52.238;13.438;2023-04-03T15:27:22;4.23;;;1.57;;
11473;SDS011;5793;52.238;13.438;2023-04-03T15:29:50;2.63;;;1.53;;